Terminal Aerodrome Forecast
Issued by NWS

Home | Current Version | Previous Version | Text Only | Print | Product List | Glossary On
Versions: 1 2 3 4 5 6 7 8 9 10 11 12 13 14 15 16
000
FTUS42 KTAE 262339
TAFABY
TAF
KABY 262339Z 2700/2724 22007KT P6SM SCT080 OVC100
     FM270600 23007KT 6SM BR BKN002
     FM271400 30010G15KT P6SM BKN015
     FM271800 31015KT P6SM SKC=

USA.gov is the U.S. government's official web portal to all federal, state and local government web resources and services.